sensor_id;sensor_type;location;lat;lon;timestamp;temperature;humidity
39925;DHT22;25592;49.986;11.618;2023-03-12T00:01:12;2.60;99.90
39925;DHT22;25592;49.986;11.618;2023-03-12T00:04:00;2.60;99.90
39925;DHT22;25592;49.986;11.618;2023-03-12T00:06:46;2.60;99.90
39925;DHT22;25592;49.986;11.618;2023-03-12T00:09:34;2.50;99.90
39925;DHT22;25592;49.986;11.618;2023-03-12T00:12:20;2.60;99.90
39925;DHT22;25592;49.986;11.618;2023-03-12T00:15:06;2.50;99.90
39925;DHT22;25592;49.986;11.618;2023-03-12T00:17:52;2.50;99.90
39925;DHT22;25592;49.986;11.618;2023-03-12T00:20:37;2.50;99.90
39925;DHT22;25592;49.986;11.618;2023-03-12T00:23:22;2.50;99.90
39925;DHT22;25592;49.986;11.618;2023-03-12T00:26:10;2.40;99.90
39925;DHT22;25592;49.986;11.618;2023-03-12T00:28:56;2.40;99.90
39925;DHT22;25592;49.986;11.618;2023-03-12T00:31:41;2.40;99.90
39925;DHT22;25592;49.986;11.618;2023-03-12T00:34:27;2.40;99.90
39925;DHT22;25592;49.986;11.618;2023-03-12T00:37:12;2.40;99.90
39925;DHT22;25592;49.986;11.618;2023-03-12T00:45:29;2.40;99.90
39925;DHT22;25592;49.986;11.618;2023-03-12T01:32:29;2.20;99.90
39925;DHT22;25592;49.986;11.618;2023-03-12T01:52:09;1.90;99.90
39925;DHT22;25592;49.986;11.618;2023-03-12T01:55:02;1.90;99.90
39925;DHT22;25592;49.986;11.618;2023-03-12T02:03:21;1.90;99.90
39925;DHT22;25592;49.986;11.618;2023-03-12T02:06:13;1.80;99.90
39925;DHT22;25592;49.986;11.618;2023-03-12T02:09:00;1.80;99.90
39925;DHT22;25592;49.986;11.618;2023-03-12T02:11:46;1.80;99.90
39925;DHT22;25592;49.986;11.618;2023-03-12T02:14:31;1.80;99.90
39925;DHT22;25592;49.986;11.618;2023-03-12T02:17:17;1.80;99.90
39925;DHT22;25592;49.986;11.618;2023-03-12T02:26:18;1.80;99.90
39925;DHT22;25592;49.986;11.618;2023-03-12T02:29:07;1.80;99.90
39925;DHT22;25592;49.986;11.618;2023-03-12T02:31:55;1.80;99.90
39925;DHT22;25592;49.986;11.618;2023-03-12T02:34:41;1.70;99.90
39925;DHT22;25592;49.986;11.618;2023-03-12T02:37:27;1.70;99.90
39925;DHT22;25592;49.986;11.618;2023-03-12T02:40:19;1.70;99.90
39925;DHT22;25592;49.986;11.618;2023-03-12T02:43:08;1.70;99.90
39925;DHT22;25592;49.986;11.618;2023-03-12T02:45:54;1.70;99.90
39925;DHT22;25592;49.986;11.618;2023-03-12T02:48:40;1.70;99.90
39925;DHT22;25592;49.986;11.618;2023-03-12T02:51:25;1.70;99.90
39925;DHT22;25592;49.986;11.618;2023-03-12T02:54:12;1.80;99.90
39925;DHT22;25592;49.986;11.618;2023-03-12T02:56:58;1.80;99.90
39925;DHT22;25592;49.986;11.618;2023-03-12T02:59:43;1.70;99.90
39925;DHT22;25592;49.986;11.618;2023-03-12T03:02:28;1.70;99.90
39925;DHT22;25592;49.986;11.618;2023-03-12T03:05:14;1.60;99.90
39925;DHT22;25592;49.986;11.618;2023-03-12T03:07:59;1.60;99.90
39925;DHT22;25592;49.986;11.618;2023-03-12T03:10:45;1.60;99.90
39925;DHT22;25592;49.986;11.618;2023-03-12T03:13:30;1.60;99.90
39925;DHT22;25592;49.986;11.618;2023-03-12T03:16:16;1.60;99.90
39925;DHT22;25592;49.986;11.618;2023-03-12T03:19:02;1.60;99.90
39925;DHT22;25592;49.986;11.618;2023-03-12T03:21:47;1.60;99.90
39925;DHT22;25592;49.986;11.618;2023-03-12T03:24:33;1.60;99.90
39925;DHT22;25592;49.986;11.618;2023-03-12T03:27:20;1.70;99.90
39925;DHT22;25592;49.986;11.618;2023-03-12T03:30:07;1.60;99.90
39925;DHT22;25592;49.986;11.618;2023-03-12T03:32:52;1.60;99.90
39925;DHT22;25592;49.986;11.618;2023-03-12T03:35:38;1.60;99.90
39925;DHT22;25592;49.986;11.618;2023-03-12T03:38:23;1.60;99.90
39925;DHT22;25592;49.986;11.618;2023-03-12T03:57:46;1.60;99.90
39925;DHT22;25592;49.986;11.618;2023-03-12T04:00:33;1.60;99.90
39925;DHT22;25592;49.986;11.618;2023-03-12T04:03:18;1.60;99.90
39925;DHT22;25592;49.986;11.618;2023-03-12T04:06:05;1.70;99.90
39925;DHT22;25592;49.986;11.618;2023-03-12T04:08:50;1.60;99.90
39925;DHT22;25592;49.986;11.618;2023-03-12T04:11:36;1.70;99.90
39925;DHT22;25592;49.986;11.618;2023-03-12T04:14:21;1.70;99.90
39925;DHT22;25592;49.986;11.618;2023-03-12T04:17:07;1.70;99.90
39925;DHT22;25592;49.986;11.618;2023-03-12T04:19:52;1.70;99.90
39925;DHT22;25592;49.986;11.618;2023-03-12T04:22:38;1.70;99.90
39925;DHT22;25592;49.986;11.618;2023-03-12T04:25:23;1.70;99.90
39925;DHT22;25592;49.986;11.618;2023-03-12T04:28:09;1.70;99.90
39925;DHT22;25592;49.986;11.618;2023-03-12T04:30:56;1.70;99.90
39925;DHT22;25592;49.986;11.618;2023-03-12T04:33:44;1.70;99.90
39925;DHT22;25592;49.986;11.618;2023-03-12T04:36:29;1.70;99.90
39925;DHT22;25592;49.986;11.618;2023-03-12T04:39:18;1.70;99.90
39925;DHT22;25592;49.986;11.618;2023-03-12T04:42:04;1.70;99.90
39925;DHT22;25592;49.986;11.618;2023-03-12T04:44:50;1.80;99.90
39925;DHT22;25592;49.986;11.618;2023-03-12T04:47:36;1.80;99.90
39925;DHT22;25592;49.986;11.618;2023-03-12T04:50:21;1.70;99.90
39925;DHT22;25592;49.986;11.618;2023-03-12T04:53:07;1.70;99.90
39925;DHT22;25592;49.986;11.618;2023-03-12T04:55:52;1.70;99.90
39925;DHT22;25592;49.986;11.618;2023-03-12T04:58:38;1.70;99.90
39925;DHT22;25592;49.986;11.618;2023-03-12T05:01:26;1.80;99.90
39925;DHT22;25592;49.986;11.618;2023-03-12T05:04:11;1.80;99.90
39925;DHT22;25592;49.986;11.618;2023-03-12T05:06:56;1.80;99.90
39925;DHT22;25592;49.986;11.618;2023-03-12T05:09:42;1.80;99.90
39925;DHT22;25592;49.986;11.618;2023-03-12T05:12:28;1.80;99.90
39925;DHT22;25592;49.986;11.618;2023-03-12T05:15:13;1.80;99.90
39925;DHT22;25592;49.986;11.618;2023-03-12T05:17:59;1.80;99.90
39925;DHT22;25592;49.986;11.618;2023-03-12T05:20:44;1.80;99.90
39925;DHT22;25592;49.986;11.618;2023-03-12T05:23:30;1.80;99.90
39925;DHT22;25592;49.986;11.618;2023-03-12T05:26:30;1.80;99.90
39925;DHT22;25592;49.986;11.618;2023-03-12T05:29:15;1.80;99.90
39925;DHT22;25592;49.986;11.618;2023-03-12T05:32:02;1.80;99.90
39925;DHT22;25592;49.986;11.618;2023-03-12T05:34:47;1.80;99.90
39925;DHT22;25592;49.986;11.618;2023-03-12T05:37:33;1.80;99.90
39925;DHT22;25592;49.986;11.618;2023-03-12T05:40:18;1.80;99.90
39925;DHT22;25592;49.986;11.618;2023-03-12T05:43:03;1.80;99.90
39925;DHT22;25592;49.986;11.618;2023-03-12T05:45:49;1.80;99.90
39925;DHT22;25592;49.986;11.618;2023-03-12T05:48:34;1.80;99.90
39925;DHT22;25592;49.986;11.618;2023-03-12T05:51:20;1.90;99.90
39925;DHT22;25592;49.986;11.618;2023-03-12T05:54:05;1.80;99.90
39925;DHT22;25592;49.986;11.618;2023-03-12T05:56:51;1.80;99.90
39925;DHT22;25592;49.986;11.618;2023-03-12T05:59:36;1.80;99.90
39925;DHT22;25592;49.986;11.618;2023-03-12T06:02:22;1.90;99.90
39925;DHT22;25592;49.986;11.618;2023-03-12T06:05:09;1.90;99.90
39925;DHT22;25592;49.986;11.618;2023-03-12T06:07:55;1.90;99.90
39925;DHT22;25592;49.986;11.618;2023-03-12T06:10:40;1.90;99.90
39925;DHT22;25592;49.986;11.618;2023-03-12T06:13:25;1.90;99.90
39925;DHT22;25592;49.986;11.618;2023-03-12T06:16:20;1.90;99.90
39925;DHT22;25592;49.986;11.618;2023-03-12T06:19:07;1.90;99.90
39925;DHT22;25592;49.986;11.618;2023-03-12T06:21:52;2.00;99.90
39925;DHT22;25592;49.986;11.618;2023-03-12T06:24:38;2.00;99.90
39925;DHT22;25592;49.986;11.618;2023-03-12T06:27:26;2.00;99.90
39925;DHT22;25592;49.986;11.618;2023-03-12T06:30:12;2.00;99.90
39925;DHT22;25592;49.986;11.618;2023-03-12T06:32:58;2.00;99.90
39925;DHT22;25592;49.986;11.618;2023-03-12T06:35:43;2.10;99.90
39925;DHT22;25592;49.986;11.618;2023-03-12T06:38:29;2.10;99.90
39925;DHT22;25592;49.986;11.618;2023-03-12T06:41:17;2.20;99.90
39925;DHT22;25592;49.986;11.618;2023-03-12T06:44:03;2.20;99.90
39925;DHT22;25592;49.986;11.618;2023-03-12T06:46:50;2.30;99.90
39925;DHT22;25592;49.986;11.618;2023-03-12T06:49:36;2.30;99.90
39925;DHT22;25592;49.986;11.618;2023-03-12T06:52:22;2.30;99.90
39925;DHT22;25592;49.986;11.618;2023-03-12T06:55:07;2.30;99.90
39925;DHT22;25592;49.986;11.618;2023-03-12T06:57:57;2.30;99.90
39925;DHT22;25592;49.986;11.618;2023-03-12T07:00:43;2.30;99.90
39925;DHT22;25592;49.986;11.618;2023-03-12T07:03:28;2.30;99.90
39925;DHT22;25592;49.986;11.618;2023-03-12T07:06:19;2.30;99.90
39925;DHT22;25592;49.986;11.618;2023-03-12T07:09:04;2.30;99.90
39925;DHT22;25592;49.986;11.618;2023-03-12T07:11:50;2.30;99.90
39925;DHT22;25592;49.986;11.618;2023-03-12T07:14:35;2.40;99.90
39925;DHT22;25592;49.986;11.618;2023-03-12T07:17:20;2.50;99.90
39925;DHT22;25592;49.986;11.618;2023-03-12T07:20:07;2.50;99.90
39925;DHT22;25592;49.986;11.618;2023-03-12T07:22:53;2.60;99.90
39925;DHT22;25592;49.986;11.618;2023-03-12T07:25:40;2.60;99.90
39925;DHT22;25592;49.986;11.618;2023-03-12T07:28:25;2.70;99.90
39925;DHT22;25592;49.986;11.618;2023-03-12T07:31:11;2.70;99.90
39925;DHT22;25592;49.986;11.618;2023-03-12T07:33:56;2.80;99.90
39925;DHT22;25592;49.986;11.618;2023-03-12T07:36:42;2.90;99.90
39925;DHT22;25592;49.986;11.618;2023-03-12T07:39:27;2.90;99.90
39925;DHT22;25592;49.986;11.618;2023-03-12T07:42:12;2.90;99.90
39925;DHT22;25592;49.986;11.618;2023-03-12T07:44:58;2.90;99.90
39925;DHT22;25592;49.986;11.618;2023-03-12T07:47:43;3.00;99.90
39925;DHT22;25592;49.986;11.618;2023-03-12T07:50:30;3.00;99.90
39925;DHT22;25592;49.986;11.618;2023-03-12T07:53:15;3.00;99.90
39925;DHT22;25592;49.986;11.618;2023-03-12T07:56:00;2.90;99.90
39925;DHT22;25592;49.986;11.618;2023-03-12T07:58:46;2.80;99.90
39925;DHT22;25592;49.986;11.618;2023-03-12T08:01:31;2.80;99.90
39925;DHT22;25592;49.986;11.618;2023-03-12T08:04:17;2.90;99.90
39925;DHT22;25592;49.986;11.618;2023-03-12T08:07:03;2.90;99.90
39925;DHT22;25592;49.986;11.618;2023-03-12T08:09:52;2.90;99.90
39925;DHT22;25592;49.986;11.618;2023-03-12T08:12:37;2.70;99.90
39925;DHT22;25592;49.986;11.618;2023-03-12T08:15:23;2.80;99.90
39925;DHT22;25592;49.986;11.618;2023-03-12T08:18:08;2.90;99.90
39925;DHT22;25592;49.986;11.618;2023-03-12T08:20:53;2.90;99.90
39925;DHT22;25592;49.986;11.618;2023-03-12T08:23:39;2.90;99.90
39925;DHT22;25592;49.986;11.618;2023-03-12T08:26:24;2.70;99.90
39925;DHT22;25592;49.986;11.618;2023-03-12T08:29:10;2.80;99.90
39925;DHT22;25592;49.986;11.618;2023-03-12T08:31:55;3.00;99.90
39925;DHT22;25592;49.986;11.618;2023-03-12T08:34:49;3.00;99.90
39925;DHT22;25592;49.986;11.618;2023-03-12T08:37:35;3.20;99.90
39925;DHT22;25592;49.986;11.618;2023-03-12T08:40:20;3.20;99.90
39925;DHT22;25592;49.986;11.618;2023-03-12T08:43:05;3.30;99.90
39925;DHT22;25592;49.986;11.618;2023-03-12T08:45:58;3.40;99.90
39925;DHT22;25592;49.986;11.618;2023-03-12T08:48:45;3.30;99.90
39925;DHT22;25592;49.986;11.618;2023-03-12T08:51:30;3.30;99.90
39925;DHT22;25592;49.986;11.618;2023-03-12T08:54:17;3.40;99.90
39925;DHT22;25592;49.986;11.618;2023-03-12T08:57:02;3.50;99.90
39925;DHT22;25592;49.986;11.618;2023-03-12T08:59:48;3.60;99.90
39925;DHT22;25592;49.986;11.618;2023-03-12T09:02:33;3.80;99.90
39925;DHT22;25592;49.986;11.618;2023-03-12T09:05:19;3.90;99.90
39925;DHT22;25592;49.986;11.618;2023-03-12T09:08:05;3.80;99.90
39925;DHT22;25592;49.986;11.618;2023-03-12T09:10:50;3.90;99.90
39925;DHT22;25592;49.986;11.618;2023-03-12T09:13:35;4.00;99.90
39925;DHT22;25592;49.986;11.618;2023-03-12T09:16:41;4.20;99.90
39925;DHT22;25592;49.986;11.618;2023-03-12T09:19:26;4.30;99.90
39925;DHT22;25592;49.986;11.618;2023-03-12T09:22:37;4.40;99.90
39925;DHT22;25592;49.986;11.618;2023-03-12T09:25:23;4.20;99.90
39925;DHT22;25592;49.986;11.618;2023-03-12T09:28:08;4.30;99.90
39925;DHT22;25592;49.986;11.618;2023-03-12T09:30:54;4.40;99.90
39925;DHT22;25592;49.986;11.618;2023-03-12T09:33:39;4.50;99.90
39925;DHT22;25592;49.986;11.618;2023-03-12T09:36:25;4.60;99.90
39925;DHT22;25592;49.986;11.618;2023-03-12T09:39:10;4.80;99.90
39925;DHT22;25592;49.986;11.618;2023-03-12T09:41:56;4.80;99.90
39925;DHT22;25592;49.986;11.618;2023-03-12T09:44:44;4.90;99.90
39925;DHT22;25592;49.986;11.618;2023-03-12T09:47:36;4.90;99.90
39925;DHT22;25592;49.986;11.618;2023-03-12T09:53:36;5.00;99.90
39925;DHT22;25592;49.986;11.618;2023-03-12T09:56:26;5.10;99.90
39925;DHT22;25592;49.986;11.618;2023-03-12T09:59:11;5.20;99.60
39925;DHT22;25592;49.986;11.618;2023-03-12T10:01:59;5.40;99.60
39925;DHT22;25592;49.986;11.618;2023-03-12T10:04:51;5.50;99.80
39925;DHT22;25592;49.986;11.618;2023-03-12T10:07:51;5.50;99.50
39925;DHT22;25592;49.986;11.618;2023-03-12T10:25:45;6.00;97.80
39925;DHT22;25592;49.986;11.618;2023-03-12T10:28:42;6.20;97.90
39925;DHT22;25592;49.986;11.618;2023-03-12T10:31:35;6.40;97.10
39925;DHT22;25592;49.986;11.618;2023-03-12T10:34:31;6.40;97.20
39925;DHT22;25592;49.986;11.618;2023-03-12T10:40:31;6.40;97.00
39925;DHT22;25592;49.986;11.618;2023-03-12T10:43:18;6.30;96.80
39925;DHT22;25592;49.986;11.618;2023-03-12T10:52:19;6.80;96.20
39925;DHT22;25592;49.986;11.618;2023-03-12T10:55:28;6.70;96.60
39925;DHT22;25592;49.986;11.618;2023-03-12T10:58:23;6.70;96.30
39925;DHT22;25592;49.986;11.618;2023-03-12T11:04:18;6.50;96.60
39925;DHT22;25592;49.986;11.618;2023-03-12T11:10:16;6.60;97.40
39925;DHT22;25592;49.986;11.618;2023-03-12T11:19:02;6.50;97.60
39925;DHT22;25592;49.986;11.618;2023-03-12T11:22:08;6.40;97.50
39925;DHT22;25592;49.986;11.618;2023-03-12T11:24:58;6.40;97.70
39925;DHT22;25592;49.986;11.618;2023-03-12T11:27:46;6.30;97.70
39925;DHT22;25592;49.986;11.618;2023-03-12T11:30:39;6.30;97.90
39925;DHT22;25592;49.986;11.618;2023-03-12T11:33:24;6.30;98.00
39925;DHT22;25592;49.986;11.618;2023-03-12T11:58:30;6.30;99.70
39925;DHT22;25592;49.986;11.618;2023-03-12T12:22:41;6.20;99.90
39925;DHT22;25592;49.986;11.618;2023-03-12T12:25:33;6.00;99.90
39925;DHT22;25592;49.986;11.618;2023-03-12T12:31:28;6.20;99.90
39925;DHT22;25592;49.986;11.618;2023-03-12T12:40:29;6.00;99.90
39925;DHT22;25592;49.986;11.618;2023-03-12T12:46:23;6.00;99.90
39925;DHT22;25592;49.986;11.618;2023-03-12T12:49:14;6.10;99.90
39925;DHT22;25592;49.986;11.618;2023-03-12T12:52:07;6.20;99.90
39925;DHT22;25592;49.986;11.618;2023-03-12T12:58:01;6.10;99.90
39925;DHT22;25592;49.986;11.618;2023-03-12T13:00:51;6.10;99.90
39925;DHT22;25592;49.986;11.618;2023-03-12T13:03:38;6.20;99.90
39925;DHT22;25592;49.986;11.618;2023-03-12T13:06:27;6.20;99.90
39925;DHT22;25592;49.986;11.618;2023-03-12T13:09:15;6.20;99.90
39925;DHT22;25592;49.986;11.618;2023-03-12T13:12:35;6.20;99.90
39925;DHT22;25592;49.986;11.618;2023-03-12T13:18:29;6.20;99.90
39925;DHT22;25592;49.986;11.618;2023-03-12T13:27:40;6.00;99.90
39925;DHT22;25592;49.986;11.618;2023-03-12T13:33:35;6.10;99.90
39925;DHT22;25592;49.986;11.618;2023-03-12T13:36:23;6.00;99.90
39925;DHT22;25592;49.986;11.618;2023-03-12T13:39:33;5.80;99.90
39925;DHT22;25592;49.986;11.618;2023-03-12T13:45:27;5.70;99.90
39925;DHT22;25592;49.986;11.618;2023-03-12T13:48:17;5.60;99.90
39925;DHT22;25592;49.986;11.618;2023-03-12T13:51:15;5.60;99.90
39925;DHT22;25592;49.986;11.618;2023-03-12T13:54:02;5.70;99.90
39925;DHT22;25592;49.986;11.618;2023-03-12T13:57:03;5.70;99.90
39925;DHT22;25592;49.986;11.618;2023-03-12T13:59:49;5.60;99.90
39925;DHT22;25592;49.986;11.618;2023-03-12T14:02:39;5.60;99.90
39925;DHT22;25592;49.986;11.618;2023-03-12T14:05:27;5.60;99.90
39925;DHT22;25592;49.986;11.618;2023-03-12T14:08:21;5.50;99.90
39925;DHT22;25592;49.986;11.618;2023-03-12T14:17:37;5.40;99.90
39925;DHT22;25592;49.986;11.618;2023-03-12T14:20:23;5.50;99.90
39925;DHT22;25592;49.986;11.618;2023-03-12T14:23:13;5.50;99.90
39925;DHT22;25592;49.986;11.618;2023-03-12T14:26:02;5.50;99.90
39925;DHT22;25592;49.986;11.618;2023-03-12T14:29:00;5.50;99.90
39925;DHT22;25592;49.986;11.618;2023-03-12T14:31:47;5.40;99.90
39925;DHT22;25592;49.986;11.618;2023-03-12T14:34:40;5.40;99.90
39925;DHT22;25592;49.986;11.618;2023-03-12T14:37:51;5.40;99.90
39925;DHT22;25592;49.986;11.618;2023-03-12T14:40:50;5.40;99.90
39925;DHT22;25592;49.986;11.618;2023-03-12T14:43:36;5.60;99.90
39925;DHT22;25592;49.986;11.618;2023-03-12T14:46:23;5.70;99.90
39925;DHT22;25592;49.986;11.618;2023-03-12T14:49:18;5.70;99.90
39925;DHT22;25592;49.986;11.618;2023-03-12T14:52:04;5.80;99.90
39925;DHT22;25592;49.986;11.618;2023-03-12T14:57:39;5.90;99.90
39925;DHT22;25592;49.986;11.618;2023-03-12T15:00:27;5.90;99.90
39925;DHT22;25592;49.986;11.618;2023-03-12T15:03:14;5.90;99.90
39925;DHT22;25592;49.986;11.618;2023-03-12T15:06:00;6.10;99.90
39925;DHT22;25592;49.986;11.618;2023-03-12T15:08:46;6.10;99.90
39925;DHT22;25592;49.986;11.618;2023-03-12T15:11:34;6.20;99.90
39925;DHT22;25592;49.986;11.618;2023-03-12T15:14:22;6.20;99.90
39925;DHT22;25592;49.986;11.618;2023-03-12T15:17:13;6.30;99.90
39925;DHT22;25592;49.986;11.618;2023-03-12T15:20:04;6.40;99.90
39925;DHT22;25592;49.986;11.618;2023-03-12T15:22:53;6.30;99.90
39925;DHT22;25592;49.986;11.618;2023-03-12T15:25:39;6.30;99.90
39925;DHT22;25592;49.986;11.618;2023-03-12T15:28:26;6.40;99.90
39925;DHT22;25592;49.986;11.618;2023-03-12T15:31:14;6.50;99.90
39925;DHT22;25592;49.986;11.618;2023-03-12T15:34:02;6.50;99.90
39925;DHT22;25592;49.986;11.618;2023-03-12T15:36:48;6.40;99.90
39925;DHT22;25592;49.986;11.618;2023-03-12T15:39:36;6.40;99.90
39925;DHT22;25592;49.986;11.618;2023-03-12T15:42:24;6.40;99.90
39925;DHT22;25592;49.986;11.618;2023-03-12T15:45:24;6.40;99.90
39925;DHT22;25592;49.986;11.618;2023-03-12T15:48:23;6.40;99.90
39925;DHT22;25592;49.986;11.618;2023-03-12T15:51:28;6.30;99.90
39925;DHT22;25592;49.986;11.618;2023-03-12T15:57:21;6.30;99.90
39925;DHT22;25592;49.986;11.618;2023-03-12T16:03:00;6.40;99.90
39925;DHT22;25592;49.986;11.618;2023-03-12T16:05:49;6.50;99.90
39925;DHT22;25592;49.986;11.618;2023-03-12T16:08:38;6.60;99.90
39925;DHT22;25592;49.986;11.618;2023-03-12T16:11:26;6.70;99.90
39925;DHT22;25592;49.986;11.618;2023-03-12T16:14:18;6.70;99.90
39925;DHT22;25592;49.986;11.618;2023-03-12T16:17:09;6.70;99.90
39925;DHT22;25592;49.986;11.618;2023-03-12T16:19:54;6.70;99.90
39925;DHT22;25592;49.986;11.618;2023-03-12T16:22:40;6.60;99.90
39925;DHT22;25592;49.986;11.618;2023-03-12T16:25:25;6.50;99.90
39925;DHT22;25592;49.986;11.618;2023-03-12T16:28:13;6.60;99.90
39925;DHT22;25592;49.986;11.618;2023-03-12T16:30:59;6.60;99.90
39925;DHT22;25592;49.986;11.618;2023-03-12T16:33:45;6.60;99.90
39925;DHT22;25592;49.986;11.618;2023-03-12T16:36:31;6.60;99.90
39925;DHT22;25592;49.986;11.618;2023-03-12T16:39:16;6.60;99.90
39925;DHT22;25592;49.986;11.618;2023-03-12T16:42:11;6.60;99.90
39925;DHT22;25592;49.986;11.618;2023-03-12T16:44:59;6.60;99.90
39925;DHT22;25592;49.986;11.618;2023-03-12T16:47:58;6.70;99.90
39925;DHT22;25592;49.986;11.618;2023-03-12T16:50:53;6.70;99.90
39925;DHT22;25592;49.986;11.618;2023-03-12T16:53:38;6.70;99.90
39925;DHT22;25592;49.986;11.618;2023-03-12T16:56:25;6.70;99.90
39925;DHT22;25592;49.986;11.618;2023-03-12T16:59:22;6.70;99.90
39925;DHT22;25592;49.986;11.618;2023-03-12T17:02:14;6.70;99.90
39925;DHT22;25592;49.986;11.618;2023-03-12T17:05:00;6.80;99.90
39925;DHT22;25592;49.986;11.618;2023-03-12T17:07:46;6.80;99.90
39925;DHT22;25592;49.986;11.618;2023-03-12T17:10:31;6.90;99.90
39925;DHT22;25592;49.986;11.618;2023-03-12T17:13:25;6.90;99.90
39925;DHT22;25592;49.986;11.618;2023-03-12T17:16:11;7.00;99.90
39925;DHT22;25592;49.986;11.618;2023-03-12T17:18:57;7.00;99.90
39925;DHT22;25592;49.986;11.618;2023-03-12T17:21:44;7.00;99.90
39925;DHT22;25592;49.986;11.618;2023-03-12T17:24:29;7.00;99.90
39925;DHT22;25592;49.986;11.618;2023-03-12T17:27:15;7.10;99.90
39925;DHT22;25592;49.986;11.618;2023-03-12T17:30:00;7.20;99.90
39925;DHT22;25592;49.986;11.618;2023-03-12T17:32:46;7.10;99.90
39925;DHT22;25592;49.986;11.618;2023-03-12T17:35:32;7.10;99.90
39925;DHT22;25592;49.986;11.618;2023-03-12T17:38:17;7.20;99.90
39925;DHT22;25592;49.986;11.618;2023-03-12T17:41:03;7.10;99.90
39925;DHT22;25592;49.986;11.618;2023-03-12T17:43:55;7.20;99.90
39925;DHT22;25592;49.986;11.618;2023-03-12T17:46:43;7.10;99.90
39925;DHT22;25592;49.986;11.618;2023-03-12T17:49:43;7.20;99.90
39925;DHT22;25592;49.986;11.618;2023-03-12T17:52:29;7.30;99.90
39925;DHT22;25592;49.986;11.618;2023-03-12T17:55:16;7.30;99.90
39925;DHT22;25592;49.986;11.618;2023-03-12T17:58:02;7.40;99.90
39925;DHT22;25592;49.986;11.618;2023-03-12T18:00:49;7.30;99.90
39925;DHT22;25592;49.986;11.618;2023-03-12T18:03:35;7.30;99.90
39925;DHT22;25592;49.986;11.618;2023-03-12T18:06:20;7.30;99.90
39925;DHT22;25592;49.986;11.618;2023-03-12T18:09:05;7.40;99.90
39925;DHT22;25592;49.986;11.618;2023-03-12T18:11:51;7.40;99.90
39925;DHT22;25592;49.986;11.618;2023-03-12T18:14:36;7.40;99.90
39925;DHT22;25592;49.986;11.618;2023-03-12T18:17:22;7.50;99.90
39925;DHT22;25592;49.986;11.618;2023-03-12T18:20:08;7.50;99.90
39925;DHT22;25592;49.986;11.618;2023-03-12T18:22:54;7.60;99.90
39925;DHT22;25592;49.986;11.618;2023-03-12T18:25:40;7.60;99.90
39925;DHT22;25592;49.986;11.618;2023-03-12T18:28:27;7.60;99.90
39925;DHT22;25592;49.986;11.618;2023-03-12T18:31:12;7.60;99.90
39925;DHT22;25592;49.986;11.618;2023-03-12T18:33:58;7.50;99.90
39925;DHT22;25592;49.986;11.618;2023-03-12T18:36:43;7.60;99.90
39925;DHT22;25592;49.986;11.618;2023-03-12T18:39:28;7.50;99.90
39925;DHT22;25592;49.986;11.618;2023-03-12T18:42:14;7.50;99.90
39925;DHT22;25592;49.986;11.618;2023-03-12T18:44:59;7.60;99.90
39925;DHT22;25592;49.986;11.618;2023-03-12T18:47:45;7.60;99.90
39925;DHT22;25592;49.986;11.618;2023-03-12T18:50:34;7.50;99.90
39925;DHT22;25592;49.986;11.618;2023-03-12T18:53:21;7.60;99.90
39925;DHT22;25592;49.986;11.618;2023-03-12T18:56:07;7.60;99.90
39925;DHT22;25592;49.986;11.618;2023-03-12T18:58:52;7.60;99.90
39925;DHT22;25592;49.986;11.618;2023-03-12T19:01:37;7.60;99.90
39925;DHT22;25592;49.986;11.618;2023-03-12T19:04:22;7.60;99.90
39925;DHT22;25592;49.986;11.618;2023-03-12T19:07:10;7.60;99.90
39925;DHT22;25592;49.986;11.618;2023-03-12T19:09:55;7.60;99.90
39925;DHT22;25592;49.986;11.618;2023-03-12T19:12:40;7.50;99.90
39925;DHT22;25592;49.986;11.618;2023-03-12T19:15:37;7.50;99.90
39925;DHT22;25592;49.986;11.618;2023-03-12T19:18:23;7.60;99.90
39925;DHT22;25592;49.986;11.618;2023-03-12T19:21:09;7.50;99.90
39925;DHT22;25592;49.986;11.618;2023-03-12T19:23:54;7.50;99.90
39925;DHT22;25592;49.986;11.618;2023-03-12T19:26:40;7.60;99.90
39925;DHT22;25592;49.986;11.618;2023-03-12T19:29:26;7.60;99.90
39925;DHT22;25592;49.986;11.618;2023-03-12T19:32:11;7.60;99.90
39925;DHT22;25592;49.986;11.618;2023-03-12T19:34:56;7.70;99.90
39925;DHT22;25592;49.986;11.618;2023-03-12T19:37:42;7.60;99.90
39925;DHT22;25592;49.986;11.618;2023-03-12T19:40:27;7.60;99.90
39925;DHT22;25592;49.986;11.618;2023-03-12T19:43:13;7.70;99.90
39925;DHT22;25592;49.986;11.618;2023-03-12T19:45:58;7.80;99.90
39925;DHT22;25592;49.986;11.618;2023-03-12T19:48:43;7.80;99.90
39925;DHT22;25592;49.986;11.618;2023-03-12T19:51:28;7.80;99.90
39925;DHT22;25592;49.986;11.618;2023-03-12T19:54:14;7.80;99.90
39925;DHT22;25592;49.986;11.618;2023-03-12T19:56:59;7.90;99.90
39925;DHT22;25592;49.986;11.618;2023-03-12T19:59:45;7.90;99.90
39925;DHT22;25592;49.986;11.618;2023-03-12T20:02:30;7.80;99.90
39925;DHT22;25592;49.986;11.618;2023-03-12T20:05:16;7.90;99.90
39925;DHT22;25592;49.986;11.618;2023-03-12T20:08:01;7.90;99.90
39925;DHT22;25592;49.986;11.618;2023-03-12T20:10:47;7.90;99.90
39925;DHT22;25592;49.986;11.618;2023-03-12T20:13:33;7.90;99.90
39925;DHT22;25592;49.986;11.618;2023-03-12T20:16:19;7.90;99.90
39925;DHT22;25592;49.986;11.618;2023-03-12T20:19:05;7.80;99.90
39925;DHT22;25592;49.986;11.618;2023-03-12T20:21:50;7.90;99.90
39925;DHT22;25592;49.986;11.618;2023-03-12T20:24:36;7.90;99.90
39925;DHT22;25592;49.986;11.618;2023-03-12T20:27:21;7.90;99.90
39925;DHT22;25592;49.986;11.618;2023-03-12T20:30:08;8.00;99.90
39925;DHT22;25592;49.986;11.618;2023-03-12T20:32:53;8.00;99.90
39925;DHT22;25592;49.986;11.618;2023-03-12T20:35:39;8.00;99.90
39925;DHT22;25592;49.986;11.618;2023-03-12T20:38:24;8.00;99.90
39925;DHT22;25592;49.986;11.618;2023-03-12T20:41:11;8.00;99.90
39925;DHT22;25592;49.986;11.618;2023-03-12T20:43:57;7.90;99.90
39925;DHT22;25592;49.986;11.618;2023-03-12T20:46:42;8.00;99.90
39925;DHT22;25592;49.986;11.618;2023-03-12T20:49:28;8.00;99.90
39925;DHT22;25592;49.986;11.618;2023-03-12T20:52:13;8.10;99.90
39925;DHT22;25592;49.986;11.618;2023-03-12T20:54:58;8.10;99.90
39925;DHT22;25592;49.986;11.618;2023-03-12T20:57:44;8.00;99.90
39925;DHT22;25592;49.986;11.618;2023-03-12T21:00:30;8.00;99.90
39925;DHT22;25592;49.986;11.618;2023-03-12T21:03:15;8.00;99.90
39925;DHT22;25592;49.986;11.618;2023-03-12T21:06:03;8.10;99.90
39925;DHT22;25592;49.986;11.618;2023-03-12T21:08:48;8.10;99.90
39925;DHT22;25592;49.986;11.618;2023-03-12T21:11:34;8.20;99.90
39925;DHT22;25592;49.986;11.618;2023-03-12T21:14:19;8.20;99.90
39925;DHT22;25592;49.986;11.618;2023-03-12T21:17:05;8.20;99.90
39925;DHT22;25592;49.986;11.618;2023-03-12T21:19:50;8.20;99.90
39925;DHT22;25592;49.986;11.618;2023-03-12T21:22:36;8.20;99.90